createdAt,value
2019-02-12T00:00:47.181Z,2.20
2019-02-12T00:03:15.998Z,1.82
2019-02-12T00:05:44.757Z,2.02
2019-02-12T00:08:13.760Z,2.15
2019-02-12T00:10:42.522Z,1.72
2019-02-12T00:13:11.521Z,2.65
2019-02-12T00:15:40.352Z,2.30
2019-02-12T00:18:09.109Z,2.22
2019-02-12T00:20:37.909Z,2.30
2019-02-12T00:23:06.217Z,1.52
2019-02-12T00:25:34.981Z,2.15
2019-02-12T00:28:03.737Z,1.77
2019-02-12T00:30:32.555Z,2.42
2019-02-12T00:33:01.317Z,1.75
2019-02-12T00:35:30.108Z,2.12
2019-02-12T00:37:58.909Z,2.15
2019-02-12T00:40:28.104Z,2.10
2019-02-12T00:42:56.901Z,1.98
2019-02-12T00:45:25.665Z,1.98
2019-02-12T00:47:54.416Z,1.75
2019-02-12T00:50:23.427Z,1.90
2019-02-12T00:52:52.197Z,2.12
2019-02-12T00:55:20.957Z,2.25
2019-02-12T00:57:49.714Z,1.80
2019-02-12T01:00:18.547Z,2.45
2019-02-12T01:02:47.307Z,1.90
2019-02-12T01:05:16.137Z,2.30
2019-02-12T01:07:44.883Z,1.80
2019-02-12T01:10:14.121Z,2.17
2019-02-12T01:12:43.098Z,3.10
2019-02-12T01:15:12.684Z,1.92
2019-02-12T01:17:41.520Z,2.20
2019-02-12T01:20:11.912Z,2.08
2019-02-12T01:22:41.027Z,2.30
2019-02-12T01:25:09.935Z,1.77
2019-02-12T01:27:38.692Z,1.98
2019-02-12T01:30:14.095Z,2.15
2019-02-12T01:32:43.080Z,2.08
2019-02-12T01:35:11.635Z,2.08
2019-02-12T01:37:40.484Z,2.12
2019-02-12T01:40:11.589Z,1.52
2019-02-12T01:42:40.354Z,2.75
2019-02-12T01:45:10.738Z,2.90
2019-02-12T01:47:39.568Z,1.75
2019-02-12T01:50:10.385Z,2.52
2019-02-12T01:52:39.226Z,1.75
2019-02-12T01:55:08.243Z,2.77
2019-02-12T01:57:37.098Z,1.75
2019-02-12T02:00:07.675Z,2.40
2019-02-12T02:02:36.447Z,1.70
2019-02-12T02:05:06.080Z,2.83
2019-02-12T02:07:34.384Z,2.05
2019-02-12T02:10:04.616Z,1.60
2019-02-12T02:12:33.643Z,2.05
2019-02-12T02:15:01.960Z,1.90
2019-02-12T02:17:30.804Z,2.35
2019-02-12T02:19:59.729Z,2.00
2019-02-12T02:22:28.504Z,2.65
2019-02-12T02:24:57.360Z,2.85
2019-02-12T02:27:26.117Z,1.55
2019-02-12T02:29:55.121Z,2.87
2019-02-12T02:32:23.884Z,3.22
2019-02-12T02:34:52.653Z,2.33
2019-02-12T02:37:21.416Z,2.80
2019-02-12T02:39:50.257Z,2.37
2019-02-12T02:42:19.176Z,3.05
2019-02-12T02:44:47.509Z,2.80
2019-02-12T02:47:15.835Z,2.85
2019-02-12T02:49:44.117Z,1.82
2019-02-12T02:52:12.924Z,2.50
2019-02-12T02:54:41.700Z,2.08
2019-02-12T02:57:10.495Z,2.30
2019-02-12T02:59:39.281Z,2.00
2019-02-12T03:02:08.240Z,1.95
2019-02-12T03:04:37.142Z,2.85
2019-02-12T03:07:05.456Z,3.08
2019-02-12T03:09:34.238Z,2.08
2019-02-12T03:12:03.094Z,2.62
2019-02-12T03:14:31.413Z,2.20
2019-02-12T03:17:00.085Z,3.05
2019-02-12T03:19:28.940Z,2.85
2019-02-12T03:22:03.384Z,1.82
2019-02-12T03:24:28.318Z,1.98
2019-02-12T03:26:56.709Z,1.62
2019-02-12T03:29:25.505Z,1.70
2019-02-12T03:31:54.277Z,2.17
2019-02-12T03:34:23.093Z,2.15
2019-02-12T03:36:51.431Z,1.72
2019-02-12T03:39:20.292Z,2.60
2019-02-12T03:41:48.607Z,2.27
2019-02-12T03:44:17.395Z,2.80
2019-02-12T03:46:45.700Z,2.52
2019-02-12T03:49:14.484Z,2.30
2019-02-12T03:51:43.320Z,2.52
2019-02-12T03:54:12.196Z,1.62
2019-02-12T03:56:40.578Z,2.00
2019-02-12T03:59:09.360Z,1.70
2019-02-12T04:01:38.133Z,2.85
2019-02-12T04:04:07.065Z,2.85
2019-02-12T04:06:35.368Z,2.05
2019-02-12T04:09:04.585Z,2.50
2019-02-12T04:11:33.631Z,2.77
2019-02-12T04:14:02.496Z,2.47
2019-02-12T04:16:31.418Z,2.62
2019-02-12T04:18:59.768Z,2.55
2019-02-12T04:21:28.096Z,2.22
2019-02-12T04:23:56.415Z,3.02
2019-02-12T04:26:25.264Z,2.25
2019-02-12T04:28:53.590Z,2.40
2019-02-12T04:31:22.390Z,2.30
2019-02-12T04:33:51.269Z,1.95
2019-02-12T04:36:19.580Z,3.33
2019-02-12T04:38:48.397Z,2.17
2019-02-12T04:41:16.720Z,2.27
2019-02-12T04:43:45.497Z,2.37
2019-02-12T04:46:13.809Z,2.45
2019-02-12T04:48:42.590Z,4.37
2019-02-12T04:51:11.400Z,6.22
2019-02-12T04:53:40.175Z,5.72
2019-02-12T04:56:09.028Z,5.45
2019-02-12T04:58:37.861Z,3.95
2019-02-12T05:01:06.638Z,4.60
2019-02-12T05:03:35.419Z,5.00
2019-02-12T05:06:04.199Z,3.87
2019-02-12T05:09:23.697Z,3.08
2019-02-12T05:11:54.933Z,3.58
2019-02-12T05:14:23.750Z,2.37
2019-02-12T05:16:52.071Z,3.58
2019-02-12T05:19:20.840Z,2.67
2019-02-12T05:21:49.622Z,3.33
2019-02-12T05:24:18.417Z,3.05
2019-02-12T05:26:47.204Z,2.60
2019-02-12T05:29:18.269Z,2.55
2019-02-12T05:31:46.516Z,2.72
2019-02-12T05:34:15.324Z,5.17
2019-02-12T05:36:43.965Z,3.20
2019-02-12T05:39:12.749Z,3.08
2019-02-12T05:41:41.592Z,1.90
2019-02-12T05:44:10.390Z,2.50
2019-02-12T05:46:38.704Z,2.98
2019-02-12T05:49:07.572Z,2.40
2019-02-12T05:51:36.428Z,2.47
2019-02-12T05:54:05.337Z,3.65
2019-02-12T05:56:34.713Z,4.50
2019-02-12T05:59:03.536Z,4.47
2019-02-12T06:01:32.322Z,4.80
2019-02-12T06:04:01.176Z,4.90
2019-02-12T06:06:29.969Z,5.72
2019-02-12T06:09:01.293Z,4.05
2019-02-12T06:11:29.610Z,4.47
2019-02-12T06:13:58.398Z,2.60
2019-02-12T06:16:27.249Z,4.53
2019-02-12T06:18:55.576Z,3.65
2019-02-12T06:21:24.374Z,3.75
2019-02-12T06:23:53.161Z,4.50
2019-02-12T06:26:21.933Z,3.30
2019-02-12T06:28:50.740Z,3.72
2019-02-12T06:31:19.522Z,3.60
2019-02-12T06:33:48.322Z,3.10
2019-02-12T06:36:16.668Z,3.17
2019-02-12T06:38:45.425Z,2.83
2019-02-12T06:41:14.216Z,3.02
2019-02-12T06:43:42.984Z,3.40
2019-02-12T06:46:11.822Z,2.87
2019-02-12T06:48:40.585Z,4.58
2019-02-12T06:51:09.373Z,3.65
2019-02-12T06:53:38.165Z,4.00
2019-02-12T06:56:06.952Z,3.15
2019-02-12T06:58:35.262Z,2.67
2019-02-12T07:01:04.203Z,2.45
2019-02-12T07:03:47.100Z,3.33
2019-02-12T07:06:34.657Z,2.52
2019-02-12T07:09:21.296Z,2.02
2019-02-12T07:12:07.474Z,3.17
2019-02-12T07:14:53.409Z,3.75
2019-02-12T07:17:53.052Z,2.95
2019-02-12T07:20:33.308Z,4.50
2019-02-12T07:23:32.708Z,3.77
2019-02-12T07:26:32.342Z,3.27
2019-02-12T07:29:33.775Z,4.58
2019-02-12T07:32:42.474Z,3.55
2019-02-12T07:35:29.326Z,4.35
2019-02-12T07:38:15.051Z,3.30
2019-02-12T07:41:05.394Z,7.08
2019-02-12T07:43:55.868Z,3.58
2019-02-12T07:46:50.848Z,4.58
2019-02-12T07:49:25.999Z,3.35
2019-02-12T07:52:24.020Z,3.08
2019-02-12T07:55:44.112Z,4.05
2019-02-12T07:58:40.732Z,2.90
2019-02-12T08:01:20.703Z,3.50
2019-02-12T08:03:57.225Z,4.40
2019-02-12T08:06:47.869Z,5.67
2019-02-12T08:09:35.417Z,8.35
2019-02-12T08:12:17.316Z,8.70
2019-02-12T08:15:07.240Z,7.12
2019-02-12T08:17:53.772Z,7.25
2019-02-12T08:21:02.976Z,5.33
2019-02-12T08:24:19.637Z,3.55
2019-02-12T08:27:31.944Z,4.00
2019-02-12T08:30:26.880Z,2.85
2019-02-12T08:33:06.642Z,3.55
2019-02-12T08:35:57.014Z,3.00
2019-02-12T08:38:38.425Z,3.95
2019-02-12T08:41:34.924Z,4.50
2019-02-12T08:44:19.964Z,4.70
2019-02-12T08:47:13.214Z,4.08
2019-02-12T08:50:38.541Z,4.17
2019-02-12T08:53:18.421Z,4.03
2019-02-12T08:56:18.349Z,3.72
2019-02-12T08:59:43.800Z,3.77
2019-02-12T09:02:33.820Z,4.10
2019-02-12T09:05:46.144Z,2.25
2019-02-12T09:08:28.729Z,3.98
2019-02-12T09:11:23.940Z,2.70
2019-02-12T09:14:10.196Z,3.65
2019-02-12T09:17:07.524Z,3.98
2019-02-12T09:19:54.664Z,2.75
2019-02-12T09:22:51.477Z,3.00
2019-02-12T09:25:39.077Z,3.20
2019-02-12T09:28:35.888Z,3.40
2019-02-12T09:31:48.165Z,4.33
2019-02-12T09:34:52.117Z,2.85
2019-02-12T09:37:47.345Z,2.30
2019-02-12T09:40:39.975Z,3.05
2019-02-12T09:43:38.812Z,2.97
2019-02-12T09:47:00.785Z,2.85
2019-02-12T09:50:05.469Z,3.08
2019-02-12T09:53:20.678Z,3.45
2019-02-12T09:56:24.609Z,2.90
2019-02-12T09:59:24.244Z,2.30
2019-02-12T10:02:17.009Z,2.40
2019-02-12T10:05:07.571Z,3.27
2019-02-12T10:08:27.075Z,2.87
2019-02-12T10:11:26.757Z,2.27
2019-02-12T10:14:08.265Z,3.03
2019-02-12T10:16:47.227Z,2.83
2019-02-12T10:19:56.752Z,3.20
2019-02-12T10:22:50.421Z,2.95
2019-02-12T10:25:34.290Z,2.73
2019-02-12T10:28:48.952Z,2.70
2019-02-12T10:31:28.696Z,2.60
2019-02-12T10:33:57.532Z,2.83
2019-02-12T10:36:25.905Z,2.30
2019-02-12T10:38:54.267Z,2.23
2019-02-12T10:41:23.089Z,2.80
2019-02-12T10:43:52.105Z,3.17
2019-02-12T10:46:20.872Z,3.43
2019-02-12T10:48:49.192Z,2.90
2019-02-12T10:51:18.029Z,3.20
2019-02-12T10:53:46.846Z,2.57
2019-02-12T10:56:15.625Z,3.80
2019-02-12T10:58:44.401Z,2.43
2019-02-12T11:01:13.237Z,2.30
2019-02-12T11:03:42.077Z,2.07
2019-02-12T11:06:10.933Z,1.90
2019-02-12T11:08:39.252Z,2.50
2019-02-12T11:11:07.566Z,1.97
2019-02-12T11:13:36.332Z,2.43
2019-02-12T11:16:06.824Z,2.47
2019-02-12T11:18:35.828Z,2.57
2019-02-12T11:21:11.717Z,1.67
2019-02-12T11:23:35.833Z,2.73
2019-02-12T11:26:04.751Z,3.63
2019-02-12T11:28:33.600Z,3.07
2019-02-12T11:31:02.364Z,2.27
2019-02-12T11:33:30.783Z,2.33
2019-02-12T11:35:59.102Z,2.33
2019-02-12T11:38:27.420Z,2.00
2019-02-12T11:40:55.772Z,2.20
2019-02-12T11:43:24.616Z,2.30
2019-02-12T11:45:53.396Z,2.10
2019-02-12T11:48:21.738Z,1.93
2019-02-12T11:50:50.099Z,2.97
2019-02-12T11:53:18.905Z,2.13
2019-02-12T11:55:47.658Z,1.70
2019-02-12T11:58:16.429Z,2.33
2019-02-12T12:00:50.072Z,1.53
2019-02-12T12:03:18.982Z,1.90
2019-02-12T12:05:47.288Z,1.87
2019-02-12T12:08:15.728Z,1.13
2019-02-12T12:11:03.824Z,2.60
2019-02-12T12:13:32.308Z,2.00
2019-02-12T12:16:01.152Z,2.10
2019-02-12T12:18:29.597Z,2.50
2019-02-12T12:20:58.495Z,2.10
2019-02-12T12:23:27.397Z,1.10
2019-02-12T12:25:56.241Z,2.07
2019-02-12T12:28:25.109Z,1.27
2019-02-12T12:30:53.969Z,2.00
2019-02-12T12:33:22.750Z,2.00
2019-02-12T12:35:51.156Z,1.20
2019-02-12T12:38:19.491Z,2.50
2019-02-12T12:40:47.808Z,1.67
2019-02-12T12:43:16.616Z,1.53
2019-02-12T12:45:45.498Z,1.30
2019-02-12T12:48:13.928Z,2.77
2019-02-12T12:50:42.290Z,2.10
2019-02-12T12:53:10.609Z,1.13
2019-02-12T12:55:39.633Z,1.20
2019-02-12T12:58:08.553Z,1.40
2019-02-12T13:00:37.400Z,1.40
2019-02-12T13:03:05.804Z,1.67
2019-02-12T13:05:34.580Z,2.13
2019-02-12T13:08:03.373Z,1.80
2019-02-12T13:10:31.692Z,2.30
2019-02-12T13:13:00.567Z,4.30
2019-02-12T13:15:28.984Z,3.07
2019-02-12T13:17:57.753Z,1.50
2019-02-12T13:20:26.538Z,1.90
2019-02-12T13:22:55.296Z,1.37
2019-02-12T13:25:24.143Z,1.70
2019-02-12T13:27:53.064Z,1.07
2019-02-12T13:30:22.064Z,1.83
2019-02-12T13:32:51.069Z,2.03
2019-02-12T13:35:19.733Z,1.13
2019-02-12T13:37:48.611Z,1.60
2019-02-12T13:40:16.998Z,1.30
2019-02-12T13:42:47.092Z,1.53
2019-02-12T13:45:15.692Z,1.93
2019-02-12T13:47:44.531Z,1.20
2019-02-12T13:50:13.176Z,1.50
2019-02-12T13:52:41.547Z,1.10
2019-02-12T13:55:17.034Z,1.73
2019-02-12T13:57:42.708Z,1.30
2019-02-12T14:00:13.205Z,1.03
2019-02-12T14:02:41.985Z,1.57
2019-02-12T14:05:15.649Z,1.50
2019-02-12T14:07:44.700Z,1.23
2019-02-12T14:10:13.652Z,1.20
2019-02-12T14:12:42.446Z,2.03
2019-02-12T14:15:11.300Z,1.50
2019-02-12T14:17:39.650Z,2.67
2019-02-12T14:20:10.604Z,2.40
2019-02-12T14:22:39.452Z,2.50
2019-02-12T14:25:09.208Z,2.67
2019-02-12T14:27:37.981Z,1.77
2019-02-12T14:30:06.856Z,2.77
2019-02-12T14:32:35.709Z,2.23
2019-02-12T14:35:04.988Z,2.00
2019-02-12T14:37:33.378Z,1.30
2019-02-12T14:40:01.699Z,1.90
2019-02-12T14:42:30.601Z,1.50
2019-02-12T14:44:59.628Z,2.47
2019-02-12T14:47:27.931Z,1.73
2019-02-12T14:49:56.741Z,1.90
2019-02-12T14:52:25.504Z,1.83
2019-02-12T14:54:54.309Z,1.17
2019-02-12T14:57:22.700Z,1.50
2019-02-12T14:59:51.569Z,0.83
2019-02-12T15:02:20.330Z,1.53
2019-02-12T15:04:49.152Z,1.10
2019-02-12T15:07:17.455Z,1.10
2019-02-12T15:09:45.779Z,1.00
2019-02-12T15:12:14.878Z,0.83
2019-02-12T15:14:43.193Z,0.70
2019-02-12T15:17:11.517Z,1.20
2019-02-12T15:19:40.331Z,1.03
2019-02-12T15:22:09.234Z,0.60
2019-02-12T15:24:38.320Z,1.27
2019-02-12T15:27:06.636Z,1.60
2019-02-12T15:29:35.493Z,1.73
2019-02-12T15:32:04.423Z,2.83
2019-02-12T15:34:32.774Z,1.27
2019-02-12T15:37:01.611Z,1.20
2019-02-12T15:39:30.401Z,0.70
2019-02-12T15:41:59.184Z,1.20
2019-02-12T15:44:27.625Z,1.00
2019-02-12T15:46:55.935Z,1.30
2019-02-12T15:49:24.703Z,1.30
2019-02-12T15:51:53.108Z,2.37
2019-02-12T15:54:21.872Z,1.33
2019-02-12T15:56:50.669Z,1.20
2019-02-12T15:59:19.524Z,1.33
2019-02-12T16:01:49.124Z,1.83
2019-02-12T16:04:19.686Z,1.93
2019-02-12T16:06:48.660Z,1.60
2019-02-12T16:09:17.816Z,1.40
2019-02-12T16:11:46.673Z,1.10
2019-02-12T16:14:16.489Z,1.50
2019-02-12T16:16:45.280Z,1.30
2019-02-12T16:19:13.605Z,1.40
2019-02-12T16:21:42.382Z,1.50
2019-02-12T16:24:11.229Z,1.40
2019-02-12T16:26:40.006Z,1.13
2019-02-12T16:29:08.780Z,1.30
2019-02-12T16:31:37.620Z,1.17
2019-02-12T16:34:06.436Z,2.20
2019-02-12T16:36:35.300Z,1.60
2019-02-12T16:39:05.200Z,2.60
2019-02-12T16:41:33.596Z,1.77
2019-02-12T16:44:01.922Z,1.47
2019-02-12T16:46:30.700Z,1.43
2019-02-12T16:48:59.469Z,1.60
2019-02-12T16:51:29.627Z,1.77
2019-02-12T16:53:57.909Z,1.80
2019-02-12T16:56:26.766Z,1.87
2019-02-12T16:59:03.245Z,1.93
2019-02-12T17:01:25.585Z,1.50
2019-02-12T17:03:53.972Z,1.83
2019-02-12T17:06:22.996Z,1.73
2019-02-12T17:08:51.314Z,1.90
2019-02-12T17:11:19.712Z,1.77
2019-02-12T17:13:48.486Z,1.37
2019-02-12T17:16:17.274Z,2.03
2019-02-12T17:18:45.593Z,2.10
2019-02-12T17:21:14.473Z,1.57
2019-02-12T17:23:43.256Z,1.63
2019-02-12T17:26:16.426Z,1.53
2019-02-12T17:28:42.681Z,2.50
2019-02-12T17:31:11.435Z,2.00
2019-02-12T17:33:40.195Z,1.40
2019-02-12T17:36:08.985Z,1.40
2019-02-12T17:38:37.292Z,1.90
2019-02-12T17:41:05.736Z,1.53
2019-02-12T17:43:34.260Z,1.50
2019-02-12T17:46:03.334Z,1.43
2019-02-12T17:48:31.644Z,2.00
2019-02-12T17:51:00.541Z,1.80
2019-02-12T17:53:29.589Z,2.20
2019-02-12T17:55:57.896Z,1.67
2019-02-12T17:58:26.731Z,2.10
2019-02-12T18:00:55.057Z,1.50
2019-02-12T18:03:23.900Z,1.10
2019-02-12T18:05:52.839Z,0.90
2019-02-12T18:08:21.616Z,2.37
2019-02-12T18:10:49.952Z,1.80
2019-02-12T18:13:18.275Z,1.82
2019-02-12T18:15:46.668Z,4.58
2019-02-12T18:18:15.665Z,3.30
2019-02-12T18:20:44.461Z,1.97
2019-02-12T18:23:12.796Z,2.00
2019-02-12T18:25:41.581Z,2.00
2019-02-12T18:28:10.389Z,2.00
2019-02-12T18:30:38.768Z,2.42
2019-02-12T18:33:07.099Z,3.70
2019-02-12T18:35:35.509Z,6.12
2019-02-12T18:38:04.385Z,3.65
2019-02-12T18:40:32.697Z,2.75
2019-02-12T18:43:01.109Z,2.58
2019-02-12T18:45:29.487Z,2.10
2019-02-12T18:47:57.829Z,1.98
2019-02-12T18:50:26.760Z,1.60
2019-02-12T18:52:55.081Z,2.22
2019-02-12T18:55:24.097Z,2.00
2019-02-12T18:57:52.868Z,2.20
2019-02-12T19:00:21.633Z,2.22
2019-02-12T19:02:50.501Z,2.17
2019-02-12T19:05:19.412Z,3.45
2019-02-12T19:07:47.804Z,2.75
2019-02-12T19:10:16.716Z,3.52
2019-02-12T19:12:45.816Z,3.95
2019-02-12T19:15:14.665Z,2.27
2019-02-12T19:17:45.842Z,2.72
2019-02-12T19:20:14.780Z,1.67
2019-02-12T19:22:43.552Z,1.50
2019-02-12T19:25:12.458Z,2.30
2019-02-12T19:27:40.784Z,2.83
2019-02-12T19:30:09.955Z,2.15
2019-02-12T19:32:39.044Z,1.92
2019-02-12T19:35:07.751Z,2.02
2019-02-12T19:37:36.536Z,2.08
2019-02-12T19:40:08.286Z,1.77
2019-02-12T19:42:37.128Z,1.82
2019-02-12T19:45:05.636Z,2.27
2019-02-12T19:47:34.039Z,1.98
2019-02-12T19:50:03.033Z,2.17
2019-02-12T19:52:31.908Z,1.02
2019-02-12T19:55:00.935Z,1.55
2019-02-12T19:57:29.266Z,1.37
2019-02-12T19:59:58.049Z,1.77
2019-02-12T20:02:26.848Z,0.80
2019-02-12T20:04:55.253Z,1.92
2019-02-12T20:07:23.660Z,1.72
2019-02-12T20:09:51.991Z,2.02
2019-02-12T20:12:20.857Z,1.25
2019-02-12T20:14:49.712Z,1.30
2019-02-12T20:17:18.035Z,1.60
2019-02-12T20:19:46.343Z,1.37
2019-02-12T20:22:14.679Z,1.05
2019-02-12T20:24:43.444Z,1.57
2019-02-12T20:27:12.213Z,2.00
2019-02-12T20:29:40.524Z,4.05
2019-02-12T20:32:09.305Z,1.50
2019-02-12T20:34:37.632Z,1.90
2019-02-12T20:37:06.405Z,1.70
2019-02-12T20:39:35.177Z,3.17
2019-02-12T20:42:03.499Z,2.33
2019-02-12T20:44:31.945Z,2.08
2019-02-12T20:47:00.324Z,2.00
2019-02-12T20:49:29.177Z,2.72
2019-02-12T20:51:57.488Z,1.70
2019-02-12T20:54:26.296Z,3.02
2019-02-12T20:56:55.077Z,1.98
2019-02-12T20:59:23.847Z,2.15
2019-02-12T21:01:52.608Z,2.00
2019-02-12T21:04:21.399Z,1.40
2019-02-12T21:06:50.179Z,1.80
2019-02-12T21:09:18.960Z,3.55
2019-02-12T21:11:47.383Z,2.05
2019-02-12T21:14:15.695Z,1.57
2019-02-12T21:16:44.471Z,1.90
2019-02-12T21:19:13.312Z,3.20
2019-02-12T21:21:42.101Z,2.30
2019-02-12T21:24:11.153Z,2.30
2019-02-12T21:26:39.976Z,2.22
2019-02-12T21:29:09.137Z,2.37
2019-02-12T21:31:37.924Z,2.17
2019-02-12T21:34:06.748Z,1.62
2019-02-12T21:36:35.139Z,2.80
2019-02-12T21:39:04.887Z,1.92
2019-02-12T21:41:33.697Z,2.22
2019-02-12T21:44:02.080Z,1.80
2019-02-12T21:46:30.852Z,2.10
2019-02-12T21:48:59.646Z,3.08
2019-02-12T21:51:27.939Z,2.77
2019-02-12T21:53:56.260Z,2.80
2019-02-12T21:56:24.578Z,1.77
2019-02-12T21:58:53.141Z,3.30
2019-02-12T22:01:22.156Z,2.80
2019-02-12T22:03:50.932Z,3.50
2019-02-12T22:06:19.309Z,2.60
2019-02-12T22:08:47.620Z,1.45
2019-02-12T22:11:16.397Z,3.27
2019-02-12T22:13:45.164Z,2.90
2019-02-12T22:16:13.467Z,4.67
2019-02-12T22:18:41.801Z,3.45
2019-02-12T22:21:10.577Z,4.87
2019-02-12T22:23:39.352Z,4.40
2019-02-12T22:26:08.147Z,2.30
2019-02-12T22:28:36.463Z,3.60
2019-02-12T22:31:04.768Z,3.65
2019-02-12T22:33:33.539Z,3.25
2019-02-12T22:36:02.308Z,3.65
2019-02-12T22:38:31.079Z,3.40
2019-02-12T22:40:59.445Z,2.92
2019-02-12T22:43:27.764Z,2.50
2019-02-12T22:45:56.069Z,2.50
2019-02-12T22:48:24.837Z,2.85
2019-02-12T22:50:53.631Z,3.72
2019-02-12T22:53:22.402Z,3.77
2019-02-12T22:55:51.408Z,3.10
2019-02-12T22:58:19.716Z,3.08
2019-02-12T23:00:56.024Z,3.37
2019-02-12T23:03:25.364Z,2.27
2019-02-12T23:05:54.141Z,3.75
2019-02-12T23:08:23.065Z,2.92
2019-02-12T23:10:51.465Z,2.65
2019-02-12T23:13:19.860Z,2.50
2019-02-12T23:15:48.732Z,2.87
2019-02-12T23:18:17.556Z,3.52
2019-02-12T23:20:46.411Z,3.08
2019-02-12T23:23:14.716Z,2.85
2019-02-12T23:25:43.489Z,2.85
2019-02-12T23:28:12.264Z,3.08
2019-02-12T23:30:41.116Z,2.92
2019-02-12T23:33:09.897Z,2.75
2019-02-12T23:35:38.667Z,3.12
2019-02-12T23:38:07.509Z,3.27
2019-02-12T23:40:35.828Z,2.42
2019-02-12T23:43:04.613Z,2.10
2019-02-12T23:45:32.929Z,3.00
2019-02-12T23:48:01.684Z,3.72
2019-02-12T23:50:30.458Z,3.40
2019-02-12T23:52:59.221Z,2.80
2019-02-12T23:55:28.093Z,3.08
2019-02-12T23:57:56.932Z,3.92
